Time;durP1;ratioP1;P1;durP2;ratioP2;P2;SDS_P1;SDS_P2;PMS_P1;PMS_P2;Temp;Humidity;BMP_temperature;BMP_pressure;BME280_temperature;BME280_humidity;BME280_pressure;Samples;Min_cycle;Max_cycle;Signal;HPM_P1;HPM_P2
2021/10/23 00:00:12;;;;;;;6.00;2.22;;;;;;;6.98;67.01;100350.91;1932353;90;33943;-68
2021/10/23 00:03:18;;;;;;;4.75;2.22;;;;;;;6.91;66.99;100355.17;1931549;90;27692;-67
2021/10/23 00:06:24;;;;;;;8.20;2.10;;;;;;;6.83;67.28;100355.42;1945903;90;27964;-68
2021/10/23 00:09:32;;;;;;;4.50;2.00;;;;;;;6.75;67.18;100357.45;1957572;89;28575;-69
2021/10/23 00:12:37;;;;;;;2.72;1.55;;;;;;;6.65;67.05;100360.43;1949479;90;31235;-68
2021/10/23 00:15:44;;;;;;;4.70;1.70;;;;;;;6.57;67.12;100361.12;1962112;90;32992;-67
2021/10/23 00:18:48;;;;;;;4.15;1.12;;;;;;;6.46;67.09;100356.14;1938838;89;29503;-68
2021/10/23 00:21:54;;;;;;;6.72;1.47;;;;;;;6.38;67.12;100371.02;1943431;90;27839;-67
2021/10/23 00:25:00;;;;;;;6.45;1.85;;;;;;;6.30;67.25;100382.81;1938132;87;29502;-67
2021/10/23 00:28:06;;;;;;;6.12;1.60;;;;;;;6.20;67.24;100390.23;2059495;84;31834;-66
2021/10/23 00:31:11;;;;;;;4.28;1.17;;;;;;;6.14;67.38;100397.05;2067715;84;33765;-67
2021/10/23 00:34:13;;;;;;;7.05;1.45;;;;;;;6.07;67.51;100406.53;2082795;83;29407;-66
2021/10/23 00:37:19;;;;;;;5.67;1.20;;;;;;;6.01;67.44;100413.81;2120541;83;27879;-67
2021/10/23 00:40:30;;;;;;;7.67;1.20;;;;;;;5.93;67.67;100398.05;2077058;83;29322;-67
2021/10/23 00:43:31;;;;;;;5.55;2.30;;;;;;;5.87;67.69;100400.44;2114414;83;32185;-67
2021/10/23 00:46:32;;;;;;;11.78;2.00;;;;;;;5.82;67.75;100408.13;2091824;85;33739;-67
2021/10/23 00:49:35;;;;;;;5.42;1.65;;;;;;;5.76;67.97;100402.53;2114245;83;29343;-67
2021/10/23 00:52:37;;;;;;;7.87;1.77;;;;;;;5.71;68.07;100411.94;2111634;83;27792;-68
2021/10/23 00:55:43;;;;;;;5.83;2.55;;;;;;;5.66;68.27;100416.54;2084197;83;28719;-66
2021/10/23 00:58:54;;;;;;;4.65;2.37;;;;;;;5.60;68.21;100411.38;2116549;83;31054;-66
2021/10/23 01:01:57;;;;;;;4.65;2.22;;;;;;;5.56;68.36;100421.67;2117580;83;33048;-67
2021/10/23 01:05:04;;;;;;;5.20;2.25;;;;;;;5.52;68.56;100422.69;2111375;83;29339;-67
2021/10/23 01:08:11;;;;;;;8.95;2.15;;;;;;;5.47;68.62;100427.66;2094846;83;27858;-67
2021/10/23 01:11:17;;;;;;;9.20;1.80;;;;;;;5.44;68.74;100421.09;2103125;83;28670;-67
2021/10/23 01:17:31;;;;;;;9.18;2.12;;;;;;;5.38;69.30;100436.33;2066897;85;32936;-67
2021/10/23 01:20:35;;;;;;;9.68;2.40;;;;;;;5.35;69.20;100439.95;2063844;85;29328;-67
2021/10/23 01:23:39;;;;;;;6.05;1.98;;;;;;;5.32;69.29;100442.67;2059669;85;27928;-67
2021/10/23 01:26:45;;;;;;;6.00;1.87;;;;;;;5.29;69.41;100446.30;2074681;85;29489;-67
2021/10/23 01:29:51;;;;;;;7.25;1.67;;;;;;;5.28;69.50;100447.20;2076828;84;31070;-67
2021/10/23 01:32:59;;;;;;;10.13;2.22;;;;;;;5.26;69.56;100447.69;2078293;84;32996;-67
2021/10/23 01:36:16;;;;;;;6.42;2.15;;;;;;;5.24;69.60;100452.16;2095589;84;29318;-67
2021/10/23 01:39:23;;;;;;;6.53;1.95;;;;;;;5.22;69.72;100451.33;2073014;84;28255;-67
2021/10/23 01:42:29;;;;;;;9.63;1.65;;;;;;;5.21;69.74;100458.02;2074649;84;29593;-67
2021/10/23 01:45:34;;;;;;;4.95;1.80;;;;;;;5.21;69.98;100469.97;2096720;83;31873;-67
2021/10/23 01:48:40;;;;;;;10.53;1.98;;;;;;;5.19;70.11;100477.95;2071749;84;33051;-67
2021/10/23 01:51:46;;;;;;;5.47;1.82;;;;;;;5.17;69.95;100480.66;2073721;84;30101;-67
2021/10/23 01:54:52;;;;;;;8.15;2.37;;;;;;;5.15;70.12;100488.23;2096270;84;28307;-67
2021/10/23 01:57:58;;;;;;;5.28;2.05;;;;;;;5.14;70.22;100490.47;2094300;84;28754;-68
2021/10/23 02:01:05;;;;;;;8.08;1.85;;;;;;;5.12;70.18;100498.48;2071373;84;31116;-67
2021/10/23 02:04:11;;;;;;;6.80;2.05;;;;;;;5.11;70.30;100495.41;2096880;84;32971;-68
2021/10/23 02:07:17;;;;;;;10.82;2.17;;;;;;;5.10;70.28;100500.30;2095626;84;30127;-68
2021/10/23 02:10:22;;;;;;;11.18;2.05;;;;;;;5.10;70.38;100496.78;2094961;84;27817;-68
2021/10/23 02:13:29;;;;;;;11.83;2.70;;;;;;;5.09;70.53;100501.20;2072159;84;28651;-66
2021/10/23 02:16:34;;;;;;;6.92;2.25;;;;;;;5.08;70.55;100510.55;2095991;84;31119;-67
2021/10/23 02:19:40;;;;;;;11.00;2.30;;;;;;;5.07;70.60;100512.78;2103211;81;33269;-67
2021/10/23 02:22:45;;;;;;;8.63;2.25;;;;;;;5.06;70.73;100521.19;2128675;83;29333;-67
2021/10/23 02:25:50;;;;;;;8.58;2.40;;;;;;;5.08;70.83;100519.84;2139298;82;27730;-68
2021/10/23 02:28:55;;;;;;;13.35;2.72;;;;;;;5.08;70.83;100522.03;2126647;82;28702;-68
2021/10/23 02:32:01;;;;;;;8.78;2.20;;;;;;;5.09;70.87;100528.23;2155566;82;31066;-68
2021/10/23 02:35:09;;;;;;;10.08;2.95;;;;;;;5.09;70.94;100516.28;2176318;80;28042;-70
2021/10/23 02:38:11;;;;;;;13.88;2.40;;;;;;;5.09;71.05;100517.14;2172382;80;30224;-66
2021/10/23 02:41:14;;;;;;;13.05;3.35;;;;;;;5.09;71.03;100518.47;2148346;81;27608;-68
2021/10/23 02:44:16;;;;;;;17.73;6.33;;;;;;;5.09;71.17;100521.13;2117362;82;29435;-68
2021/10/23 02:47:19;;;;;;;9.13;2.37;;;;;;;5.11;71.22;100512.67;2133814;83;31882;-67
2021/10/23 02:50:31;;;;;;;9.63;2.90;;;;;;;5.12;71.07;100521.05;2083483;84;33152;-68
2021/10/23 02:53:43;;;;;;;10.32;3.30;;;;;;;5.13;71.17;100521.94;2039533;85;27764;-67
2021/10/23 02:56:46;;;;;;;11.95;3.00;;;;;;;5.14;71.26;100526.31;2021975;87;27818;-68
2021/10/23 03:00:01;;;;;;;9.78;3.95;;;;;;;5.13;71.31;100526.78;2022092;87;28779;-68
2021/10/23 03:03:00;;;;;;;10.88;3.27;;;;;;;5.13;71.31;100529.44;2032128;86;31041;-68
2021/10/23 03:06:06;;;;;;;7.42;2.30;;;;;;;5.14;71.38;100533.84;2018688;87;33077;-68
2021/10/23 03:09:12;;;;;;;10.03;2.20;;;;;;;5.14;71.35;100530.30;2020388;87;29326;-68
2021/10/23 03:12:15;;;;;;;13.18;2.90;;;;;;;5.14;71.26;100542.25;2007306;86;27897;-67
2021/10/23 03:15:20;;;;;;;9.43;2.65;;;;;;;5.13;71.42;100551.16;2034807;86;28875;-68
2021/10/23 03:18:23;;;;;;;10.88;3.40;;;;;;;5.12;71.22;100556.05;1977973;87;31847;-68
2021/10/23 03:21:26;;;;;;;12.10;2.65;;;;;;;5.11;71.30;100554.30;2013605;87;32984;-67
2021/10/23 03:24:32;;;;;;;9.65;2.67;;;;;;;5.09;71.33;100556.97;2022121;86;28508;-67
2021/10/23 03:27:37;;;;;;;8.03;2.55;;;;;;;5.01;71.43;100541.21;2000921;87;27819;-67
2021/10/23 03:30:43;;;;;;;13.18;3.15;;;;;;;5.07;71.41;100552.61;2044351;84;28671;-67
2021/10/23 03:33:48;;;;;;;9.88;2.27;;;;;;;5.06;71.41;100561.02;2060878;86;31069;-67
2021/10/23 03:36:54;;;;;;;13.85;3.75;;;;;;;5.04;71.53;100554.89;2061323;84;32976;-68
2021/10/23 03:39:57;;;;;;;15.98;4.78;;;;;;;5.04;71.41;100561.97;2059314;86;30148;-68
2021/10/23 03:42:59;;;;;;;8.85;3.50;;;;;;;5.01;71.37;100563.78;2047960;86;27787;-67
2021/10/23 03:46:05;;;;;;;9.88;2.50;;;;;;;5.01;71.46;100574.88;2054451;84;28752;-67
2021/10/23 03:49:10;;;;;;;14.65;3.05;;;;;;;5.00;71.46;100575.78;2101862;83;31052;-67
2021/10/23 03:52:13;;;;;;;11.83;3.60;;;;;;;4.99;71.64;100578.01;2118099;82;34048;-67
2021/10/23 03:55:17;;;;;;;14.30;5.85;;;;;;;4.97;71.57;100581.15;2091736;84;30185;-67
2021/10/23 03:58:23;;;;;;;17.10;3.92;;;;;;;4.96;71.53;100582.05;2093118;84;27784;-68
2021/10/23 04:01:28;;;;;;;10.03;2.40;;;;;;;4.95;71.54;100590.48;2110883;83;28828;-67
2021/10/23 04:04:33;;;;;;;13.18;4.25;;;;;;;4.94;71.65;100592.72;2107541;83;31016;-67
2021/10/23 04:07:38;;;;;;;17.50;3.47;;;;;;;4.94;71.64;100602.45;2100051;83;32924;-66
2021/10/23 04:10:43;;;;;;;13.78;3.52;;;;;;;4.94;71.67;100610.41;2103811;83;29332;-66
2021/10/23 04:13:49;;;;;;;8.35;2.65;;;;;;;4.95;71.64;100617.03;2047122;85;28122;-66
2021/10/23 04:17:04;;;;;;;10.23;2.80;;;;;;;4.95;71.72;100622.34;2108317;83;28658;-67
2021/10/23 04:20:00;;;;;;;16.85;3.40;;;;;;;4.95;71.77;100628.09;2065123;83;28227;-67
2021/10/23 04:23:06;;;;;;;15.32;3.58;;;;;;;4.94;71.67;100634.30;2071094;83;33727;-67
2021/10/23 04:26:19;;;;;;;8.23;2.80;;;;;;;4.94;71.79;100636.53;2135177;82;29330;-67
2021/10/23 04:29:27;;;;;;;11.18;2.60;;;;;;;4.94;71.68;100632.98;2064727;84;28540;-67
2021/10/23 04:32:54;;;;;;;11.73;3.25;;;;;;;4.93;71.96;100622.83;2101642;83;29562;-69
2021/10/23 04:35:57;;;;;;;13.32;3.30;;;;;;;4.91;71.77;100628.62;2066654;85;31122;-69
2021/10/23 04:39:03;;;;;;;17.15;3.77;;;;;;;4.91;71.82;100639.67;2035519;86;32974;-67
2021/10/23 04:42:08;;;;;;;14.45;3.98;;;;;;;4.90;71.75;100632.61;2036170;86;30152;-68
2021/10/23 04:45:16;;;;;;;;;;;;;;;4.89;71.79;100640.16;2061149;85;27845;-68
2021/10/23 04:48:24;;;;;;;16.27;3.55;;;;;;;4.88;71.78;100639.77;2058201;86;28307;-67
2021/10/23 04:51:28;;;;;;;18.15;3.80;;;;;;;4.85;71.74;100634.05;2057686;86;30678;-69
2021/10/23 04:54:36;;;;;;;19.42;4.28;;;;;;;4.83;71.82;100637.17;2057907;85;32952;-68
2021/10/23 04:57:37;;;;;;;18.65;4.15;;;;;;;4.84;71.87;100641.58;2035986;86;29173;-67
2021/10/23 05:00:44;;;;;;;8.53;3.02;;;;;;;4.82;71.88;100642.95;2022526;86;27704;-67
2021/10/23 05:03:49;;;;;;;10.28;3.75;;;;;;;4.82;71.92;100642.06;2026682;86;29701;-68
2021/10/23 05:06:56;;;;;;;9.30;3.33;;;;;;;4.81;71.98;100648.27;2021953;86;31116;-67
2021/10/23 05:10:20;;;;;;;;;;;;;;;;;;;;;
2021/10/23 05:13:27;;;;;;;18.87;5.97;;;;;;;4.78;71.99;100653.20;1950984;91;29496;-69
2021/10/23 05:16:29;;;;;;;37.33;11.88;;;;;;;4.77;72.09;100658.09;1958302;89;27771;-67
2021/10/23 05:19:37;;;;;;;29.15;7.30;;;;;;;4.77;72.06;100663.40;1954025;91;28660;-67
2021/10/23 05:22:42;;;;;;;30.50;9.45;;;;;;;4.77;72.12;100658.55;1954177;91;31104;-67
2021/10/23 05:25:53;;;;;;;19.42;7.12;;;;;;;4.76;72.10;100673.59;1959438;89;33035;-67
2021/10/23 05:28:57;;;;;;;15.25;5.45;;;;;;;4.76;72.19;100674.06;1897606;93;30125;-69
2021/10/23 05:31:59;;;;;;;12.80;3.83;;;;;;;4.75;72.14;100673.16;1918425;91;28005;-70
2021/10/23 05:35:02;;;;;;;18.80;5.53;;;;;;;4.76;72.31;100676.71;1933460;92;28890;-67
2021/10/23 05:38:08;;;;;;;15.15;4.28;;;;;;;4.78;72.30;100673.58;1964751;87;31063;-64
2021/10/23 05:41:13;;;;;;;12.82;2.77;;;;;;;4.79;72.35;100672.67;2025025;87;33105;-65
2021/10/23 05:44:18;;;;;;;13.65;4.10;;;;;;;4.80;72.27;100677.08;2021117;87;29492;-65
2021/10/23 05:47:23;;;;;;;12.03;3.80;;;;;;;4.82;72.32;100677.90;2000872;88;27725;-65
2021/10/23 05:50:25;;;;;;;16.32;4.28;;;;;;;4.85;72.36;100689.35;2055870;83;29340;-67
2021/10/23 05:53:31;;;;;;;17.30;6.53;;;;;;;4.88;72.32;100687.55;2109277;83;30980;-67
2021/10/23 05:56:36;;;;;;;25.60;8.75;;;;;;;4.90;72.30;100697.66;2132212;82;33135;-67
2021/10/23 05:59:44;;;;;;;23.38;6.95;;;;;;;4.94;72.32;100704.23;2133272;83;29326;-66
2021/10/23 06:02:50;;;;;;;16.55;5.92;;;;;;;4.99;72.23;100708.97;2142627;81;27767;-64
2021/10/23 06:05:51;;;;;;;9.58;3.40;;;;;;;5.02;72.33;100710.24;2132386;82;28842;-64
2021/10/23 06:08:54;;;;;;;16.00;3.37;;;;;;;5.07;72.26;100717.25;2122428;83;31068;-64
2021/10/23 06:12:00;;;;;;;10.35;3.25;;;;;;;5.11;72.19;100716.30;2146917;82;32966;-68
2021/10/23 06:15:00;;;;;;;22.55;7.40;;;;;;;5.16;72.20;100734.31;2150254;81;29405;-66
2021/10/23 06:18:04;;;;;;;13.13;3.77;;;;;;;5.21;72.20;100733.78;2123477;82;27613;-70
2021/10/23 06:21:06;;;;;;;15.53;4.58;;;;;;;5.29;72.21;100735.84;2122410;82;28651;-65
2021/10/23 06:24:13;;;;;;;10.75;3.10;;;;;;;5.38;72.17;100745.84;2120944;82;31011;-66
2021/10/23 06:27:16;;;;;;;13.85;3.12;;;;;;;5.46;72.17;100751.87;2122177;83;34059;-66
2021/10/23 06:30:19;;;;;;;16.50;3.15;;;;;;;5.56;72.08;100742.78;2121209;82;29536;-65
2021/10/23 06:33:22;;;;;;;13.83;3.17;;;;;;;5.70;72.09;100746.92;2111094;83;27725;-65
2021/10/23 06:36:28;;;;;;;19.85;5.25;;;;;;;5.85;72.02;100753.69;2095995;84;28673;-65
2021/10/23 06:39:32;;;;;;;20.68;7.47;;;;;;;6.02;71.83;100764.84;2064096;85;31050;-65
2021/10/23 06:42:39;;;;;;;26.23;7.65;;;;;;;6.25;71.82;100759.89;2092816;83;35556;-65
2021/10/23 06:45:41;;;;;;;20.57;4.97;;;;;;;6.50;71.52;100760.16;2134030;83;30169;-67
2021/10/23 06:48:44;;;;;;;12.58;3.83;;;;;;;6.76;71.25;100769.24;2105028;82;27273;-65
2021/10/23 06:51:46;;;;;;;14.55;2.58;;;;;;;6.97;71.00;100762.02;2110425;83;29491;-68
2021/10/23 06:54:49;;;;;;;14.95;3.10;;;;;;;7.12;70.54;100771.83;2108558;83;31077;-67
2021/10/23 06:57:52;;;;;;;10.87;2.90;;;;;;;7.23;70.36;100767.55;2104810;83;28342;-66
2021/10/23 07:00:55;;;;;;;15.98;2.70;;;;;;;7.33;70.26;100769.49;2103599;83;29923;-66
2021/10/23 07:03:57;;;;;;;12.55;2.40;;;;;;;7.46;70.14;100769.55;2103258;83;27687;-66
2021/10/23 07:06:59;;;;;;;11.53;2.85;;;;;;;7.66;69.67;100768.09;2103463;83;28685;-66
2021/10/23 07:10:01;;;;;;;16.52;2.72;;;;;;;7.98;69.54;100776.90;2087561;83;30871;-66
2021/10/23 07:13:03;;;;;;;19.95;3.37;;;;;;;8.34;69.39;100776.66;2075896;84;33587;-65
2021/10/23 07:16:05;;;;;;;11.93;3.10;;;;;;;8.68;68.87;100772.00;2087895;84;29318;-65
2021/10/23 07:19:07;;;;;;;19.42;3.47;;;;;;;8.97;68.52;100781.69;2112435;83;27715;-66
2021/10/23 07:22:13;;;;;;;17.60;4.85;;;;;;;9.31;67.97;100785.82;2089034;84;29483;-67
2021/10/23 07:25:18;;;;;;;13.22;2.80;;;;;;;9.64;67.48;100786.83;2085101;83;32641;-66
2021/10/23 07:28:24;;;;;;;14.70;3.15;;;;;;;9.99;66.98;100787.72;2037508;86;33778;-66
2021/10/23 07:31:30;;;;;;;13.03;3.02;;;;;;;10.25;66.47;100790.70;2071342;85;29313;-66
2021/10/23 07:34:36;;;;;;;12.75;3.60;;;;;;;10.56;66.17;100791.29;2125468;82;27736;-66
2021/10/23 07:37:47;;;;;;;15.23;3.33;;;;;;;10.84;65.60;100800.34;2143331;82;28659;-67
2021/10/23 07:40:56;;;;;;;12.00;3.17;;;;;;;11.11;65.03;100804.13;2093660;82;31227;-65
2021/10/23 07:43:59;;;;;;;9.50;2.70;;;;;;;11.36;64.74;100801.69;2130185;83;33748;-66
2021/10/23 07:47:01;;;;;;;8.33;2.72;;;;;;;11.70;64.12;100797.47;2127061;82;30151;-66
2021/10/23 07:50:07;;;;;;;11.20;3.12;;;;;;;12.02;63.94;100807.69;2146105;82;27675;-66
2021/10/23 07:53:12;;;;;;;9.80;3.87;;;;;;;12.12;63.37;100809.86;2146382;82;28642;-67
2021/10/23 07:56:16;;;;;;;14.85;3.08;;;;;;;12.09;62.59;100801.95;2146405;82;30989;-66
2021/10/23 07:59:26;;;;;;;14.87;4.55;;;;;;;11.98;62.11;100813.19;2125104;81;33749;-66
2021/10/23 08:02:30;;;;;;;13.68;3.62;;;;;;;12.00;62.33;100807.73;2087536;84;30133;-66
2021/10/23 08:05:37;;;;;;;12.70;3.70;;;;;;;12.16;61.75;100820.83;2087243;84;27764;-68
2021/10/23 08:08:43;;;;;;;13.93;3.75;;;;;;;12.25;60.92;100834.30;2123793;83;28809;-66
2021/10/23 08:11:50;;;;;;;22.00;5.25;;;;;;;12.26;61.32;100824.44;2103836;83;28282;-67
2021/10/23 08:14:56;;;;;;;15.90;5.00;;;;;;;12.19;60.46;100835.06;2129351;83;32974;-67
2021/10/23 08:18:05;;;;;;;10.93;3.55;;;;;;;12.05;60.55;100836.59;2103976;83;29322;-67
2021/10/23 08:21:11;;;;;;;21.20;7.05;;;;;;;11.79;60.39;100842.69;2140565;82;27864;-66
2021/10/23 08:24:16;;;;;;;23.07;8.28;;;;;;;11.60;60.29;100849.34;2145835;82;28675;-65
2021/10/23 08:27:21;;;;;;;13.68;3.90;;;;;;;11.51;60.75;100842.58;2146050;82;31088;-67
2021/10/23 08:30:30;;;;;;;12.65;3.35;;;;;;;11.55;60.91;100857.61;2146126;82;32950;-66
2021/10/23 08:33:36;;;;;;;9.45;4.30;;;;;;;11.57;60.58;100857.56;2146407;80;29323;-67
2021/10/23 08:36:38;;;;;;;8.25;2.80;;;;;;;11.56;60.39;100863.87;2141608;83;27783;-67
2021/10/23 08:39:46;;;;;;;11.40;3.08;;;;;;;11.54;60.31;100859.03;2141882;83;28626;-67
2021/10/23 08:42:52;;;;;;;17.27;3.42;;;;;;;11.54;60.17;100867.09;2156839;81;31022;-67
2021/10/23 08:45:58;;;;;;;15.75;3.47;;;;;;;11.50;60.03;100863.64;2173807;81;32995;-67
2021/10/23 08:49:06;;;;;;;13.55;3.30;;;;;;;11.58;59.67;100870.05;2173935;81;30272;-66
2021/10/23 08:52:13;;;;;;;16.57;3.95;;;;;;;11.67;59.84;100870.95;2164913;81;28144;-67
2021/10/23 08:55:19;;;;;;;17.23;6.40;;;;;;;11.85;60.03;100879.97;2134091;83;28247;-66
2021/10/23 08:58:25;;;;;;;11.08;4.03;;;;;;;11.95;59.42;100879.56;2140784;81;31910;-66
2021/10/23 09:01:39;;;;;;;18.45;6.22;;;;;;;12.08;59.40;100881.26;2137809;82;33760;-66
2021/10/23 09:04:40;;;;;;;19.40;5.47;;;;;;;12.18;59.13;100895.98;2160237;81;27747;-67
2021/10/23 09:07:47;;;;;;;14.03;4.08;;;;;;;12.23;58.67;100885.91;2146917;81;27665;-68
2021/10/23 09:10:58;;;;;;;12.55;3.52;;;;;;;12.36;58.47;100893.38;2142905;81;28636;-67
2021/10/23 09:14:21;;;;;;;16.20;5.03;;;;;;;12.40;58.22;100890.95;2164911;81;31792;-68
2021/10/23 09:17:29;;;;;;;10.05;2.87;;;;;;;12.39;58.63;100891.89;2054756;86;30702;-66
2021/10/23 09:20:42;;;;;;;20.80;7.10;;;;;;;12.44;58.09;100904.61;2056706;86;29335;-67
2021/10/23 09:23:55;;;;;;;15.83;3.25;;;;;;;12.43;57.67;100900.18;2022043;88;27864;-67
2021/10/23 09:26:59;;;;;;;15.95;3.02;;;;;;;12.51;57.63;100908.77;2021736;88;27741;-66
2021/10/23 09:30:10;;;;;;;9.55;3.37;;;;;;;12.59;57.78;100913.77;2028904;85;31839;-67
2021/10/23 09:33:16;;;;;;;18.42;3.95;;;;;;;12.59;57.21;100923.17;1997619;87;34213;-66
2021/10/23 09:36:22;;;;;;;16.57;3.83;;;;;;;12.65;57.06;100917.52;2018253;87;30177;-67
2021/10/23 09:39:29;;;;;;;12.53;2.75;;;;;;;12.65;57.16;100925.58;2004018;88;27802;-68
2021/10/23 09:42:37;;;;;;;12.43;3.40;;;;;;;12.67;56.89;100926.84;2012461;87;27717;-68
2021/10/23 09:46:01;;;;;;;12.55;3.20;;;;;;;12.71;56.78;100925.27;2011674;87;31926;-66
2021/10/23 09:49:09;;;;;;;14.70;3.87;;;;;;;12.85;56.68;100920.56;2004846;88;32864;-67
2021/10/23 09:52:19;;;;;;;11.30;2.72;;;;;;;12.99;56.59;100930.62;2005762;87;29334;-66
2021/10/23 09:55:24;;;;;;;14.80;2.77;;;;;;;13.07;56.05;100928.44;1989697;87;27784;-67
2021/10/23 09:58:30;;;;;;;11.38;3.60;;;;;;;13.06;55.69;100936.59;2020961;87;29501;-67
2021/10/23 10:01:39;;;;;;;11.97;2.83;;;;;;;13.05;55.70;100938.39;2011462;87;31207;-70
2021/10/23 10:04:41;;;;;;;20.52;3.83;;;;;;;13.02;55.55;100940.38;2013029;86;32979;-72
2021/10/23 10:07:43;;;;;;;9.40;3.02;;;;;;;12.96;55.20;100959.04;2020205;86;30164;-75
2021/10/23 10:10:47;;;;;;;15.63;3.22;;;;;;;12.90;54.93;100948.56;2016631;86;27350;-77
2021/10/23 10:13:51;;;;;;;17.05;3.25;;;;;;;12.88;55.01;100951.34;2050582;82;28824;-79
2021/10/23 10:16:59;;;;;;;10.32;2.92;;;;;;;12.86;55.04;100953.23;2110585;82;31020;-74
2021/10/23 10:20:03;;;;;;;15.28;3.12;;;;;;;12.84;54.84;100943.02;2102748;82;33665;-69
2021/10/23 10:23:10;;;;;;;9.05;2.87;;;;;;;12.86;54.90;100951.89;2101206;82;30618;-72
2021/10/23 10:26:34;;;;;;;15.05;3.25;;;;;;;12.97;54.82;100946.45;2110884;82;27666;-71
2021/10/23 10:29:50;;;;;;;12.58;4.17;;;;;;;12.99;54.53;100955.31;2102897;82;27590;-72
2021/10/23 10:33:19;;;;;;;10.82;2.50;;;;;;;12.86;54.26;100953.69;2122344;82;31037;-70
2021/10/23 10:36:34;;;;;;;15.80;3.15;;;;;;;12.80;54.34;100967.45;2123067;82;30602;-73
2021/10/23 10:40:12;;;;;;;11.50;3.42;;;;;;;12.67;54.30;100948.34;2125933;82;29464;-68
2021/10/23 10:42:58;;;;;;;13.28;4.03;;;;;;;12.51;54.09;100947.73;2119157;82;28322;-71
2021/10/23 10:46:03;;;;;;;11.63;3.22;;;;;;;12.34;53.93;100955.23;2129730;82;29274;-71
2021/10/23 10:49:07;;;;;;;11.57;2.62;;;;;;;12.26;54.28;100964.12;2128837;82;31869;-81
2021/10/23 10:52:41;;;;;;;9.08;2.67;;;;;;;12.35;54.57;100969.55;2100270;82;33629;-78
2021/10/23 10:55:46;;;;;;;11.43;2.87;;;;;;;12.50;54.30;100969.28;2096156;83;29538;-81
2021/10/23 10:59:00;;;;;;;9.38;2.27;;;;;;;12.63;53.79;100962.87;2098411;83;27703;-76
2021/10/23 11:02:11;;;;;;;11.60;3.30;;;;;;;12.66;53.43;100962.73;2096338;83;28741;-74
2021/10/23 11:05:24;;;;;;;24.12;9.40;;;;;;;12.63;53.46;100962.87;2091502;83;31220;-71
2021/10/23 11:08:29;;;;;;;33.85;16.27;;;;;;;12.55;53.56;100971.30;2068715;84;33175;-73
2021/10/23 11:11:50;;;;;;;36.98;20.30;;;;;;;12.41;53.41;100972.82;2096142;83;30103;-69
2021/10/23 11:14:57;;;;;;;19.48;4.35;;;;;;;12.30;53.84;100988.09;2094380;83;27736;-69
2021/10/23 11:18:02;;;;;;;15.90;5.17;;;;;;;12.26;54.15;100985.63;2096750;83;28660;-70
2021/10/23 11:21:08;;;;;;;16.70;3.83;;;;;;;12.23;54.24;100985.30;2097352;83;31030;-70
2021/10/23 11:24:13;;;;;;;16.27;3.85;;;;;;;12.22;54.59;100986.70;2097183;83;34003;-68
2021/10/23 11:27:45;;;;;;;18.55;5.12;;;;;;;12.25;54.45;100992.79;2094654;83;29249;-68
2021/10/23 11:30:47;;;;;;;9.95;3.17;;;;;;;12.31;54.65;100997.04;2063879;85;27807;-69
2021/10/23 11:33:52;;;;;;;14.90;3.58;;;;;;;12.24;54.17;100997.80;2099016;83;28687;-69
2021/10/23 11:37:11;;;;;;;8.08;2.77;;;;;;;12.13;54.12;101004.09;2105549;83;31169;-69
2021/10/23 11:40:15;;;;;;;13.75;4.30;;;;;;;12.05;54.15;101004.93;2096357;83;33141;-71
2021/10/23 11:43:21;;;;;;;12.70;3.83;;;;;;;11.89;54.17;101008.26;2120011;83;30105;-70
2021/10/23 11:46:22;;;;;;;14.50;5.78;;;;;;;11.74;54.25;101008.45;2140623;83;27849;-69
2021/10/23 11:49:33;;;;;;;12.98;3.08;;;;;;;11.62;54.36;101009.84;2112830;83;28624;-69
2021/10/23 11:52:35;;;;;;;12.90;4.10;;;;;;;11.59;54.55;101002.39;2106037;84;31503;-69
2021/10/23 11:55:42;;;;;;;11.90;3.67;;;;;;;11.58;54.66;101014.95;2105323;84;33028;-69
2021/10/23 11:58:48;;;;;;;12.45;4.60;;;;;;;11.63;55.25;101028.17;2102036;84;29426;-69
2021/10/23 12:01:52;;;;;;;11.10;3.55;;;;;;;11.64;55.54;101026.75;2098895;84;27859;-69
2021/10/23 12:04:54;;;;;;;11.25;2.92;;;;;;;11.63;55.52;101029.03;2099049;84;29312;-67
2021/10/23 12:08:30;;;;;;;13.13;3.55;;;;;;;11.60;55.67;101018.42;2125249;81;31385;-70
2021/10/23 12:11:34;;;;;;;19.12;5.42;;;;;;;11.61;55.85;101018.82;2135987;81;32995;-67
2021/10/23 12:14:36;;;;;;;14.47;3.62;;;;;;;11.54;55.88;101021.38;2134781;83;29336;-68
2021/10/23 12:17:39;;;;;;;18.10;6.85;;;;;;;11.49;55.93;101024.27;2136678;81;27824;-69
2021/10/23 12:20:40;;;;;;;21.48;6.50;;;;;;;11.43;56.01;101035.23;2114320;83;28649;-71
2021/10/23 12:23:48;;;;;;;20.37;7.92;;;;;;;11.32;55.92;101028.97;2153336;81;31004;-67
2021/10/23 12:27:05;;;;;;;11.20;3.80;;;;;;;11.26;55.85;101033.23;2153233;81;33748;-69
2021/10/23 12:30:14;;;;;;;22.73;6.17;;;;;;;11.31;56.18;101034.41;2140693;81;28764;-68
2021/10/23 12:33:19;;;;;;;19.82;8.33;;;;;;;11.45;56.36;101049.92;2146977;82;27707;-66
2021/10/23 12:36:33;;;;;;;26.68;12.33;;;;;;;11.39;56.96;101044.34;2170309;82;28675;-68
2021/10/23 12:39:35;;;;;;;18.92;8.15;;;;;;;11.28;57.31;101038.07;2049229;85;31701;-63
2021/10/23 12:42:45;;;;;;;27.87;7.08;;;;;;;11.16;57.63;101043.94;2023641;85;32728;-64
2021/10/23 12:45:53;;;;;;;17.05;5.92;;;;;;;11.10;57.89;101044.58;2036246;87;29342;-68
2021/10/23 12:48:59;;;;;;;13.62;3.65;;;;;;;11.03;58.07;101039.52;2015987;87;27824;-64
2021/10/23 12:52:00;;;;;;;14.18;4.37;;;;;;;10.91;58.00;101041.77;2036613;86;28617;-65
2021/10/23 12:55:07;;;;;;;14.75;6.15;;;;;;;10.86;57.97;101041.55;2100611;83;31042;-63
2021/10/23 12:58:13;;;;;;;16.82;6.33;;;;;;;10.90;57.94;101045.86;2102207;83;33748;-64
2021/10/23 13:01:17;;;;;;;19.73;7.37;;;;;;;10.97;57.79;101044.67;2122865;83;29362;-65
2021/10/23 13:04:19;;;;;;;18.27;4.25;;;;;;;11.09;57.72;101051.36;2102796;83;27736;-63
2021/10/23 13:07:22;;;;;;;16.60;4.78;;;;;;;11.22;57.41;101057.12;2117025;83;30801;-67
2021/10/23 13:10:25;;;;;;;14.10;4.00;;;;;;;11.30;57.53;101067.05;2094238;83;31901;-66
2021/10/23 13:13:28;;;;;;;10.32;3.83;;;;;;;11.32;56.89;101057.14;2061493;86;33009;-66
2021/10/23 13:16:31;;;;;;;6.95;3.87;;;;;;;11.27;56.75;101056.44;2082153;83;29387;-68
2021/10/23 13:19:36;;;;;;;10.63;3.80;;;;;;;11.23;56.72;101068.25;2095111;83;27780;-67
2021/10/23 13:22:41;;;;;;;;;;;;;;;11.15;56.62;101063.20;2109465;83;28829;-66
2021/10/23 13:25:48;;;;;;;13.57;3.63;;;;;;;11.08;56.80;101067.93;2061973;85;31192;-66
2021/10/23 13:28:50;;;;;;;14.90;4.17;;;;;;;11.00;57.00;101074.53;2030099;86;32942;-67
2021/10/23 13:31:53;;;;;;;12.58;3.10;;;;;;;10.96;57.07;101071.06;2028353;86;30181;-69
2021/10/23 13:34:56;;;;;;;22.25;9.58;;;;;;;10.89;57.26;101069.58;2044313;86;27700;-68
2021/10/23 13:37:58;;;;;;;21.80;9.18;;;;;;;10.89;57.73;101074.94;2069437;86;28734;-66
2021/10/23 13:41:04;;;;;;;13.13;4.62;;;;;;;10.87;57.54;101071.44;2042927;86;31416;-66
2021/10/23 13:44:08;;;;;;;13.58;4.70;;;;;;;10.88;57.70;101074.53;2101251;84;33125;-71
2021/10/23 13:47:11;;;;;;;16.77;4.90;;;;;;;10.85;57.75;101072.81;2102866;83;30429;-67
2021/10/23 13:50:17;;;;;;;15.85;6.15;;;;;;;10.86;57.57;101077.73;2145227;81;27696;-69
2021/10/23 13:53:19;;;;;;;19.75;8.48;;;;;;;10.86;57.62;101077.73;2112050;83;28620;-68
2021/10/23 13:56:26;;;;;;;16.42;5.37;;;;;;;10.89;57.42;101077.62;2113352;84;31011;-72
2021/10/23 13:59:28;;;;;;;19.85;6.80;;;;;;;10.94;57.20;101079.19;2113676;84;32976;-67
2021/10/23 14:02:31;;;;;;;22.82;7.12;;;;;;;11.01;57.06;101084.28;2110689;84;29326;-66
2021/10/23 14:05:34;;;;;;;19.70;6.65;;;;;;;11.07;56.93;101087.63;2139780;81;27821;-67
2021/10/23 14:08:38;;;;;;;26.65;11.10;;;;;;;11.13;56.84;101092.33;2142437;81;28732;-66
2021/10/23 14:11:40;;;;;;;19.75;8.53;;;;;;;11.11;56.22;101091.06;2113652;82;31876;-66
2021/10/23 14:14:42;;;;;;;28.73;13.00;;;;;;;11.09;56.39;101091.58;2154747;80;33742;-66
2021/10/23 14:17:44;;;;;;;26.15;8.15;;;;;;;11.13;56.78;101091.88;2150155;80;30274;-65
2021/10/23 14:20:45;;;;;;;17.48;8.50;;;;;;;11.20;56.46;101100.55;2144678;81;27823;-65
2021/10/23 14:23:48;;;;;;;16.57;3.90;;;;;;;11.26;56.13;101104.31;2138120;81;29616;-65
2021/10/23 14:26:54;;;;;;;10.85;3.47;;;;;;;11.29;55.51;101108.22;2139334;81;31033;-66